Time;durP1;ratioP1;P1;durP2;ratioP2;P2;SDS_P1;SDS_P2;PMS_P1;PMS_P2;Temp;Humidity;BMP_temperature;BMP_pressure;BME280_temperature;BME280_humidity;BME280_pressure;Samples;Min_cycle;Max_cycle;Signal;HPM_P1;HPM_P2
2021/12/21 00:03:03;;;;;;;7.53;3.70;;;;;;;;;;4935850;29;20638;-70
2021/12/21 00:06:07;;;;;;;9.53;4.00;;;;;;;;;;4935889;29;20561;-70
2021/12/21 00:09:11;;;;;;;6.57;3.60;;;;;;;;;;4951741;29;20630;-71
2021/12/21 00:12:18;;;;;;;6.67;3.73;;;;;;;;;;4954803;29;20642;-71
2021/12/21 00:15:53;;;;;;;5.97;3.30;;;;;;;;;;4954939;29;20539;-70
2021/12/21 00:19:25;;;;;;;6.17;3.67;;;;;;;;;;4954686;29;20579;-71
2021/12/21 00:22:48;;;;;;;8.50;3.33;;;;;;;;;;4943072;29;20623;-70
2021/12/21 00:25:38;;;;;;;6.63;3.23;;;;;;;;;;4954837;29;20548;-70
2021/12/21 00:31:57;;;;;;;7.30;3.70;;;;;;;;;;4954480;29;20643;-70
2021/12/21 00:35:01;;;;;;;5.97;3.50;;;;;;;;;;4954516;29;20627;-70
2021/12/21 00:38:05;;;;;;;5.03;3.40;;;;;;;;;;4954096;29;20977;-70
2021/12/21 00:41:10;;;;;;;7.57;3.37;;;;;;;;;;4955203;29;20539;-70
2021/12/21 00:44:14;;;;;;;7.50;3.20;;;;;;;;;;4954763;29;20906;-70
2021/12/21 00:47:18;;;;;;;4.53;3.20;;;;;;;;;;4942883;29;20599;-70
2021/12/21 00:50:23;;;;;;;7.37;3.60;;;;;;;;;;4953374;29;20635;-70
2021/12/21 00:53:27;;;;;;;6.83;3.80;;;;;;;;;;4957059;28;20543;-70
2021/12/21 00:56:31;;;;;;;6.07;3.67;;;;;;;;;;4958541;29;20874;-70
2021/12/21 00:59:35;;;;;;;6.93;3.73;;;;;;;;;;4948779;29;20618;-70
2021/12/21 01:02:41;;;;;;;4.67;3.30;;;;;;;;;;4958070;29;20634;-70
2021/12/21 01:05:56;;;;;;;6.77;3.50;;;;;;;;;;4939116;29;21148;-70
2021/12/21 01:09:20;;;;;;;4.23;3.23;;;;;;;;;;4949269;29;20587;-70
2021/12/21 01:19:07;;;;;;;6.30;3.40;;;;;;;;;;4955090;29;20614;-70
2021/12/21 01:22:19;;;;;;;5.70;3.53;;;;;;;;;;4957779;29;20634;-70
2021/12/21 01:25:40;;;;;;;5.23;3.40;;;;;;;;;;4957707;29;20595;-70
2021/12/21 01:29:05;;;;;;;7.73;3.47;;;;;;;;;;4957125;29;20942;-70
2021/12/21 01:32:29;;;;;;;6.70;4.10;;;;;;;;;;4957643;29;20619;-70
2021/12/21 01:35:41;;;;;;;5.57;3.00;;;;;;;;;;4945745;29;20599;-70
2021/12/21 01:39:02;;;;;;;4.60;3.00;;;;;;;;;;4957054;29;20583;-70
2021/12/21 01:42:20;;;;;;;8.70;3.37;;;;;;;;;;4957653;29;20627;-70
2021/12/21 01:52:13;;;;;;;5.67;3.47;;;;;;;;;;4945517;29;20969;-70
2021/12/21 01:55:17;;;;;;;6.67;3.53;;;;;;;;;;4957528;29;21080;-70
2021/12/21 01:58:22;;;;;;;4.87;3.33;;;;;;;;;;4944936;29;20599;-70
2021/12/21 02:01:27;;;;;;;5.47;3.20;;;;;;;;;;4956985;29;20654;-70
2021/12/21 02:04:31;;;;;;;5.03;2.77;;;;;;;;;;4956211;28;20552;-70
2021/12/21 02:07:35;;;;;;;5.43;2.80;;;;;;;;;;4945152;29;20587;-70
2021/12/21 02:10:39;;;;;;;4.80;2.87;;;;;;;;;;4943796;29;20635;-70
2021/12/21 02:13:47;;;;;;;4.50;3.13;;;;;;;;;;4944719;29;20599;-70
2021/12/21 02:21:19;;;;;;;4.47;2.60;;;;;;;;;;4956429;29;20595;-70
2021/12/21 02:23:40;;;;;;;7.03;3.30;;;;;;;;;;4945352;29;20603;-70
2021/12/21 02:27:06;;;;;;;6.70;3.57;;;;;;;;;;4944480;29;20623;-70
2021/12/21 02:30:14;;;;;;;6.63;3.07;;;;;;;;;;4915039;29;20608;-70
2021/12/21 02:33:19;;;;;;;5.97;3.20;;;;;;;;;;4925894;29;20544;-70
2021/12/21 02:36:24;;;;;;;5.73;3.23;;;;;;;;;;4938879;29;20950;-70
2021/12/21 02:39:28;;;;;;;5.07;3.10;;;;;;;;;;4944344;29;20622;-70
2021/12/21 02:42:32;;;;;;;7.47;3.30;;;;;;;;;;4944670;29;20993;-70
2021/12/21 02:45:38;;;;;;;7.27;3.00;;;;;;;;;;4955110;29;20587;-70
2021/12/21 02:48:42;;;;;;;5.77;3.33;;;;;;;;;;4949408;29;20934;-70
2021/12/21 02:51:47;;;;;;;4.97;3.40;;;;;;;;;;4944249;29;20663;-70
2021/12/21 02:54:52;;;;;;;7.83;3.20;;;;;;;;;;4956155;29;20599;-70
2021/12/21 02:57:57;;;;;;;6.07;3.37;;;;;;;;;;4942727;29;20588;-70
2021/12/21 03:01:02;;;;;;;5.93;3.00;;;;;;;;;;4955419;29;20540;-70
2021/12/21 03:04:08;;;;;;;6.63;3.43;;;;;;;;;;4955951;29;20543;-70
2021/12/21 03:10:59;;;;;;;6.93;2.87;;;;;;;;;;4931545;29;20683;-70
2021/12/21 03:14:03;;;;;;;3.77;2.80;;;;;;;;;;4955741;29;20600;-70
2021/12/21 03:17:09;;;;;;;6.60;3.47;;;;;;;;;;4943409;29;20591;-70
2021/12/21 03:20:13;;;;;;;9.17;3.30;;;;;;;;;;4936652;29;20607;-70
2021/12/21 03:23:17;;;;;;;5.13;3.00;;;;;;;;;;4936397;29;20975;-70
2021/12/21 03:26:22;;;;;;;4.10;2.90;;;;;;;;;;4943888;29;20591;-70
2021/12/21 03:29:28;;;;;;;9.67;3.23;;;;;;;;;;4955241;29;20599;-70
2021/12/21 03:32:32;;;;;;;3.83;2.90;;;;;;;;;;4955171;29;20643;-70
2021/12/21 03:35:36;;;;;;;5.27;3.40;;;;;;;;;;4943168;29;20620;-70
2021/12/21 03:38:46;;;;;;;5.50;2.83;;;;;;;;;;4954939;29;20587;-70
2021/12/21 03:41:57;;;;;;;9.63;3.10;;;;;;;;;;4955456;29;20627;-70
2021/12/21 03:45:02;;;;;;;5.93;2.83;;;;;;;;;;4943504;29;20599;-70
2021/12/21 03:48:12;;;;;;;5.70;2.87;;;;;;;;;;4942214;29;20591;-70
2021/12/21 03:51:18;;;;;;;4.37;2.70;;;;;;;;;;4942974;29;20682;-70
2021/12/21 03:54:23;;;;;;;3.43;2.80;;;;;;;;;;4955079;29;20591;-70
2021/12/21 03:57:28;;;;;;;5.40;2.80;;;;;;;;;;4954739;29;20587;-70
2021/12/21 04:00:32;;;;;;;4.87;2.63;;;;;;;;;;4935900;29;20608;-70
2021/12/21 04:03:36;;;;;;;4.63;2.70;;;;;;;;;;4924176;29;20612;-70
2021/12/21 04:06:40;;;;;;;5.27;2.80;;;;;;;;;;4952851;29;20583;-70
2021/12/21 04:09:44;;;;;;;4.10;2.80;;;;;;;;;;4954771;29;20591;-70
2021/12/21 04:12:48;;;;;;;4.67;2.90;;;;;;;;;;4955227;29;20619;-70
2021/12/21 04:15:54;;;;;;;6.93;2.87;;;;;;;;;;4954965;29;21178;-70
2021/12/21 04:18:58;;;;;;;5.27;2.80;;;;;;;;;;4946213;29;20599;-70
2021/12/21 04:22:02;;;;;;;5.43;2.73;;;;;;;;;;4955075;29;20635;-70
2021/12/21 04:25:07;;;;;;;3.43;2.60;;;;;;;;;;4952272;29;20631;-70
2021/12/21 04:28:11;;;;;;;6.53;2.97;;;;;;;;;;4943144;29;20627;-70
2021/12/21 04:31:15;;;;;;;6.43;3.00;;;;;;;;;;4958340;29;20674;-70
2021/12/21 04:34:19;;;;;;;6.07;3.23;;;;;;;;;;4946947;29;20595;-70
2021/12/21 04:37:25;;;;;;;6.87;3.27;;;;;;;;;;4946634;29;20595;-70
2021/12/21 04:40:42;;;;;;;4.57;3.03;;;;;;;;;;4927693;29;20603;-70
2021/12/21 04:43:46;;;;;;;6.40;3.17;;;;;;;;;;4938585;29;20541;-70
2021/12/21 04:46:50;;;;;;;6.73;3.60;;;;;;;;;;4951719;29;20599;-70
2021/12/21 04:49:55;;;;;;;5.03;3.33;;;;;;;;;;4957417;29;20946;-70
2021/12/21 04:52:58;;;;;;;5.47;3.27;;;;;;;;;;4946536;29;20954;-70
2021/12/21 04:56:03;;;;;;;5.10;3.10;;;;;;;;;;4958259;29;21151;-70
2021/12/21 04:59:08;;;;;;;4.63;3.10;;;;;;;;;;4958316;29;20583;-70
2021/12/21 05:02:12;;;;;;;7.00;3.10;;;;;;;;;;4958281;29;21182;-70
2021/12/21 05:05:16;;;;;;;3.63;2.57;;;;;;;;;;4946678;29;20551;-70
2021/12/21 05:08:24;;;;;;;4.90;2.93;;;;;;;;;;4939514;29;20541;-70
2021/12/21 05:11:32;;;;;;;6.57;3.03;;;;;;;;;;4950867;29;20682;-70
2021/12/21 05:14:36;;;;;;;6.23;3.80;;;;;;;;;;4957767;29;20599;-70
2021/12/21 05:17:40;;;;;;;5.83;2.97;;;;;;;;;;4946414;29;20878;-70
2021/12/21 05:20:45;;;;;;;4.60;3.27;;;;;;;;;;4934725;29;20618;-70
2021/12/21 05:23:49;;;;;;;4.97;3.33;;;;;;;;;;4958084;29;20607;-69
2021/12/21 05:26:53;;;;;;;7.27;3.63;;;;;;;;;;4927196;29;20883;-70
2021/12/21 05:29:57;;;;;;;4.70;3.20;;;;;;;;;;4938802;29;21164;-70
2021/12/21 05:33:03;;;;;;;7.43;3.60;;;;;;;;;;4953479;29;20647;-71
2021/12/21 05:36:07;;;;;;;7.70;3.33;;;;;;;;;;4957672;29;20898;-71
2021/12/21 05:39:21;;;;;;;6.83;3.40;;;;;;;;;;4945517;29;21173;-70
2021/12/21 05:42:25;;;;;;;6.47;3.00;;;;;;;;;;4957080;29;20634;-70
2021/12/21 05:45:30;;;;;;;3.60;2.80;;;;;;;;;;4957500;29;20559;-71
2021/12/21 05:48:34;;;;;;;6.03;2.67;;;;;;;;;;4957655;29;20547;-71
2021/12/21 05:51:38;;;;;;;5.43;3.47;;;;;;;;;;4945118;29;20674;-70
2021/12/21 05:54:42;;;;;;;4.70;3.47;;;;;;;;;;4957372;29;20540;-70
2021/12/21 05:57:46;;;;;;;4.77;3.30;;;;;;;;;;4952069;29;20598;-70
2021/12/21 06:00:51;;;;;;;4.20;3.10;;;;;;;;;;4957084;29;20587;-70
2021/12/21 06:03:55;;;;;;;5.57;3.67;;;;;;;;;;4942542;29;20615;-70
2021/12/21 06:06:59;;;;;;;7.23;3.30;;;;;;;;;;4952090;28;20610;-70
2021/12/21 06:10:12;;;;;;;4.13;2.90;;;;;;;;;;4937680;29;20604;-70
2021/12/21 06:13:38;;;;;;;5.90;3.70;;;;;;;;;;4937624;29;20617;-71
2021/12/21 06:26:18;;;;;;;6.77;3.83;;;;;;;;;;4937454;29;21108;-70
2021/12/21 06:29:22;;;;;;;6.07;3.67;;;;;;;;;;4925812;29;20603;-70
2021/12/21 06:32:26;;;;;;;7.57;3.53;;;;;;;;;;4955451;29;20670;-70
2021/12/21 06:35:30;;;;;;;4.60;3.23;;;;;;;;;;4956396;29;20207;-70
2021/12/21 06:38:35;;;;;;;4.40;3.23;;;;;;;;;;4944667;29;20957;-71
2021/12/21 06:41:40;;;;;;;6.20;3.23;;;;;;;;;;4944188;29;21230;-70
2021/12/21 06:44:51;;;;;;;4.93;2.83;;;;;;;;;;4937188;29;20552;-70
2021/12/21 06:51:36;;;;;;;6.70;3.50;;;;;;;;;;4954478;28;20235;-70
2021/12/21 06:54:41;;;;;;;4.70;3.22;;;;;;;;;;4944375;29;20599;-70
2021/12/21 06:57:45;;;;;;;4.60;3.00;;;;;;;;;;4962289;23;20240;-89
2021/12/21 07:00:50;;;;;;;6.70;3.30;;;;;;;;;;4915033;29;20620;-87
2021/12/21 07:03:55;;;;;;;6.72;3.58;;;;;;;;;;4915945;29;20627;-86
2021/12/21 07:07:00;;;;;;;7.10;4.10;;;;;;;;;;4904777;29;20192;-87
2021/12/21 07:10:08;;;;;;;8.30;4.10;;;;;;;;;;4926249;29;20553;-88
2021/12/21 07:19:58;;;;;;;6.87;3.73;;;;;;;;;;4936474;29;20200;-86
2021/12/21 07:23:03;;;;;;;8.03;3.17;;;;;;;;;;4907228;29;20637;-86
2021/12/21 07:26:07;;;;;;;7.43;4.07;;;;;;;;;;4917065;29;20589;-87
2021/12/21 07:29:11;;;;;;;6.93;3.80;;;;;;;;;;4924039;29;20596;-86
2021/12/21 07:32:16;;;;;;;14.55;3.80;;;;;;;;;;4925207;29;20671;-87
2021/12/21 07:35:20;;;;;;;5.32;3.67;;;;;;;;;;4925253;29;20215;-87
2021/12/21 07:38:26;;;;;;;5.10;3.65;;;;;;;;;;4922521;29;20546;-87
2021/12/21 07:41:31;;;;;;;8.35;4.15;;;;;;;;;;4924725;29;20220;-88
2021/12/21 07:44:35;;;;;;;7.15;3.85;;;;;;;;;;4935949;29;20192;-88
2021/12/21 07:47:39;;;;;;;12.18;4.55;;;;;;;;;;4903128;29;20200;-88
2021/12/21 07:50:46;;;;;;;11.00;5.50;;;;;;;;;;4918541;29;20196;-88
2021/12/21 07:53:50;;;;;;;17.67;6.70;;;;;;;;;;4913900;29;20203;-88
2021/12/21 07:56:55;;;;;;;20.35;9.00;;;;;;;;;;4909371;29;20290;-87
2021/12/21 08:00:03;;;;;;;16.05;9.02;;;;;;;;;;4914218;29;20203;-87
2021/12/21 08:03:16;;;;;;;18.73;8.45;;;;;;;;;;4910547;29;20192;-87
2021/12/21 08:06:21;;;;;;;16.57;8.67;;;;;;;;;;4903204;29;20196;-87
2021/12/21 08:09:31;;;;;;;17.87;8.30;;;;;;;;;;4914155;29;20563;-87
2021/12/21 08:12:36;;;;;;;24.73;8.43;;;;;;;;;;4902291;29;21280;-87
2021/12/21 08:15:40;;;;;;;18.43;7.53;;;;;;;;;;4902800;29;20952;-87
2021/12/21 08:18:44;;;;;;;14.73;7.93;;;;;;;;;;4903074;29;20614;-87
2021/12/21 08:21:48;;;;;;;13.70;7.93;;;;;;;;;;4924554;29;20223;-86
2021/12/21 08:24:53;;;;;;;14.70;7.20;;;;;;;;;;4902005;29;20979;-86
2021/12/21 08:27:59;;;;;;;20.07;7.73;;;;;;;;;;4913473;29;20605;-87
2021/12/21 08:31:09;;;;;;;13.27;7.67;;;;;;;;;;4902864;29;20627;-86
2021/12/21 08:34:15;;;;;;;12.30;7.30;;;;;;;;;;4903032;29;20553;-86
2021/12/21 08:37:19;;;;;;;18.07;8.20;;;;;;;;;;4895054;29;20573;-87
2021/12/21 08:40:23;;;;;;;15.77;8.43;;;;;;;;;;4902475;29;20611;-87
2021/12/21 08:43:29;;;;;;;14.17;7.77;;;;;;;;;;4902292;29;20614;-86
2021/12/21 08:46:33;;;;;;;14.17;8.53;;;;;;;;;;4902743;29;20603;-87
2021/12/21 08:49:37;;;;;;;14.10;8.00;;;;;;;;;;4903075;29;20596;-87
2021/12/21 08:52:41;;;;;;;17.70;8.17;;;;;;;;;;4924390;29;20684;-87
2021/12/21 08:55:46;;;;;;;17.43;9.67;;;;;;;;;;4910724;29;20584;-87
2021/12/21 08:58:50;;;;;;;10.60;6.27;;;;;;;;;;4902609;29;21000;-87
2021/12/21 09:01:54;;;;;;;19.63;9.30;;;;;;;;;;4913028;29;21266;-87
2021/12/21 09:04:58;;;;;;;15.47;8.47;;;;;;;;;;4894604;29;20604;-87
2021/12/21 09:08:03;;;;;;;10.73;6.97;;;;;;;;;;4899582;29;20636;-87
2021/12/21 09:11:10;;;;;;;13.93;7.90;;;;;;;;;;4902468;29;21025;-87
2021/12/21 09:14:18;;;;;;;13.17;8.47;;;;;;;;;;4902829;29;20930;-87
2021/12/21 09:17:24;;;;;;;14.03;8.50;;;;;;;;;;4925424;29;20630;-87
2021/12/21 09:20:30;;;;;;;11.80;7.10;;;;;;;;;;4899843;29;20655;-86
2021/12/21 09:23:34;;;;;;;10.33;7.20;;;;;;;;;;4902728;29;20604;-88
2021/12/21 09:26:38;;;;;;;11.93;7.47;;;;;;;;;;4906298;29;20611;-86
2021/12/21 09:29:44;;;;;;;12.00;6.67;;;;;;;;;;4913640;29;20947;-86
2021/12/21 09:32:51;;;;;;;9.60;6.47;;;;;;;;;;4914174;29;20678;-86
2021/12/21 09:35:55;;;;;;;8.97;6.60;;;;;;;;;;4887590;29;20557;-86
2021/12/21 09:38:59;;;;;;;8.40;6.20;;;;;;;;;;4912265;29;20587;-88
2021/12/21 09:42:03;;;;;;;11.80;6.20;;;;;;;;;;4938633;29;20623;-87
2021/12/21 09:45:08;;;;;;;8.70;6.03;;;;;;;;;;4914640;29;20588;-87
2021/12/21 09:48:12;;;;;;;12.03;6.20;;;;;;;;;;4916279;29;20576;-87
2021/12/21 09:51:16;;;;;;;11.97;6.60;;;;;;;;;;4905182;29;20666;-87
2021/12/21 09:54:20;;;;;;;10.47;6.63;;;;;;;;;;4915894;29;20606;-87
2021/12/21 09:57:26;;;;;;;14.23;6.53;;;;;;;;;;4905265;29;20710;-87
2021/12/21 10:00:32;;;;;;;8.90;6.30;;;;;;;;;;4905326;29;20571;-87
2021/12/21 10:03:36;;;;;;;8.90;6.10;;;;;;;;;;4905281;29;20561;-88
2021/12/21 10:06:49;;;;;;;9.50;6.40;;;;;;;;;;4915977;29;21109;-87
2021/12/21 10:10:08;;;;;;;9.77;6.37;;;;;;;;;;4915697;29;21215;-88
2021/12/21 10:13:23;;;;;;;8.63;6.00;;;;;;;;;;4915626;29;20624;-87
2021/12/21 10:16:27;;;;;;;7.17;5.60;;;;;;;;;;4905047;29;20557;-87
2021/12/21 10:19:32;;;;;;;10.17;6.17;;;;;;;;;;4915749;29;20600;-87
2021/12/21 10:22:38;;;;;;;13.40;6.80;;;;;;;;;;4902330;29;20660;-87
2021/12/21 10:25:49;;;;;;;7.57;5.30;;;;;;;;;;4901368;29;21128;-89
2021/12/21 10:29:00;;;;;;;9.83;5.77;;;;;;;;;;4904719;29;20556;-88
2021/12/21 10:32:04;;;;;;;13.87;6.70;;;;;;;;;;4914673;29;20643;-88
2021/12/21 10:35:10;;;;;;;11.57;5.93;;;;;;;;;;4926010;29;20615;-88
2021/12/21 10:38:25;;;;;;;9.63;6.80;;;;;;;;;;4904747;29;20663;-90
2021/12/21 10:41:42;;;;;;;11.37;6.03;;;;;;;;;;4921004;29;20653;-89
2021/12/21 10:44:46;;;;;;;8.40;5.93;;;;;;;;;;4907272;29;20554;-89
2021/12/21 10:47:51;;;;;;;14.13;5.73;;;;;;;;;;4896217;29;20634;-89
2021/12/21 10:50:56;;;;;;;11.70;6.10;;;;;;;;;;4909511;29;20604;-87
2021/12/21 10:54:00;;;;;;;9.20;4.77;;;;;;;;;;4900257;29;20643;-87
2021/12/21 10:57:10;;;;;;;7.67;4.80;;;;;;;;;;4923468;29;20628;-88
2021/12/21 11:00:16;;;;;;;6.13;4.20;;;;;;;;;;4923105;29;20603;-87
2021/12/21 11:03:37;;;;;;;6.70;4.57;;;;;;;;;;4922574;29;20560;-88
2021/12/21 11:06:48;;;;;;;6.47;4.23;;;;;;;;;;4901584;29;20576;-88
2021/12/21 11:09:56;;;;;;;5.33;4.07;;;;;;;;;;4911829;29;20599;-87
2021/12/21 11:13:10;;;;;;;7.30;4.40;;;;;;;;;;4900967;29;20659;-88
2021/12/21 11:16:15;;;;;;;6.83;3.73;;;;;;;;;;4911409;29;20607;-88
2021/12/21 11:19:21;;;;;;;7.33;4.23;;;;;;;;;;4900891;29;20577;-87
2021/12/21 11:22:26;;;;;;;7.93;4.47;;;;;;;;;;4922201;29;20659;-87
2021/12/21 11:25:32;;;;;;;6.80;4.10;;;;;;;;;;4903314;29;20592;-88
2021/12/21 11:28:37;;;;;;;8.57;4.47;;;;;;;;;;4911392;29;20572;-87
2021/12/21 11:31:44;;;;;;;8.20;4.63;;;;;;;;;;4881714;29;20625;-87
2021/12/21 11:38:12;;;;;;;7.30;4.33;;;;;;;;;;4892123;29;20561;-88
2021/12/21 11:41:17;;;;;;;6.97;4.30;;;;;;;;;;4910080;29;20655;-88
2021/12/21 11:44:46;;;;;;;6.60;5.00;;;;;;;;;;4881656;29;20569;-87
2021/12/21 11:47:56;;;;;;;6.03;4.00;;;;;;;;;;4896090;29;20589;-86
2021/12/21 11:51:04;;;;;;;7.77;4.40;;;;;;;;;;4896684;29;20561;-86
2021/12/21 11:54:18;;;;;;;9.87;4.60;;;;;;;;;;4906511;29;20601;-87
2021/12/21 11:57:44;;;;;;;9.03;4.33;;;;;;;;;;4903323;29;20640;-87
2021/12/21 12:01:01;;;;;;;7.40;4.20;;;;;;;;;;4914868;29;20553;-88
2021/12/21 12:04:11;;;;;;;7.53;5.00;;;;;;;;;;4913808;29;20590;-90
2021/12/21 12:07:18;;;;;;;5.57;4.17;;;;;;;;;;4903396;29;20884;-87
2021/12/21 12:10:24;;;;;;;6.63;4.60;;;;;;;;;;4925234;29;20548;-88
2021/12/21 12:13:32;;;;;;;9.40;5.00;;;;;;;;;;4916432;29;20640;-88
2021/12/21 12:16:48;;;;;;;7.10;3.87;;;;;;;;;;4895185;29;20959;-88
2021/12/21 12:19:54;;;;;;;6.77;4.67;;;;;;;;;;4895074;29;20595;-88
2021/12/21 12:23:05;;;;;;;6.13;4.50;;;;;;;;;;4906460;29;20613;-88
2021/12/21 12:26:20;;;;;;;7.50;4.77;;;;;;;;;;4905902;29;20546;-88
2021/12/21 12:29:25;;;;;;;8.00;4.87;;;;;;;;;;4895369;29;20557;-88
2021/12/21 12:32:35;;;;;;;7.43;4.40;;;;;;;;;;4884237;29;20620;-88
2021/12/21 12:35:42;;;;;;;14.97;6.63;;;;;;;;;;4894952;29;20558;-88
2021/12/21 12:38:48;;;;;;;9.00;5.10;;;;;;;;;;4884425;29;20549;-87
2021/12/21 12:41:52;;;;;;;6.90;4.50;;;;;;;;;;4895010;29;20959;-88
2021/12/21 12:45:05;;;;;;;11.60;4.47;;;;;;;;;;4894792;29;20600;-88
2021/12/21 12:48:31;;;;;;;6.47;4.20;;;;;;;;;;4905985;29;20538;-88
2021/12/21 12:51:37;;;;;;;10.17;5.73;;;;;;;;;;4898890;29;20641;-88
2021/12/21 12:54:52;;;;;;;7.60;4.80;;;;;;;;;;4887751;29;20600;-88
2021/12/21 12:58:00;;;;;;;6.27;4.00;;;;;;;;;;4898464;29;20628;-88
2021/12/21 13:01:12;;;;;;;7.70;4.00;;;;;;;;;;4909245;29;20604;-87
2021/12/21 13:04:17;;;;;;;6.27;3.90;;;;;;;;;;4909563;29;20604;-87
2021/12/21 13:07:26;;;;;;;6.10;4.20;;;;;;;;;;4898365;29;20880;-87
2021/12/21 13:10:30;;;;;;;6.73;3.83;;;;;;;;;;4898365;29;20571;-87
2021/12/21 13:13:44;;;;;;;6.57;3.90;;;;;;;;;;4898318;29;20593;-88
2021/12/21 13:16:49;;;;;;;10.00;5.13;;;;;;;;;;4898337;29;20549;-87
2021/12/21 13:19:54;;;;;;;7.03;4.00;;;;;;;;;;4897807;29;20600;-88
2021/12/21 13:23:15;;;;;;;6.00;4.13;;;;;;;;;;4897801;29;20628;-87
2021/12/21 13:26:22;;;;;;;9.07;4.40;;;;;;;;;;4898047;29;20549;-88
2021/12/21 13:29:34;;;;;;;7.77;4.33;;;;;;;;;;4897627;29;20601;-88
2021/12/21 13:32:38;;;;;;;8.87;4.60;;;;;;;;;;4897764;29;20624;-88
2021/12/21 13:35:43;;;;;;;6.13;3.97;;;;;;;;;;4898055;29;20550;-88
2021/12/21 13:38:47;;;;;;;6.27;4.40;;;;;;;;;;4908887;29;21074;-87
2021/12/21 13:42:08;;;;;;;6.07;3.70;;;;;;;;;;4897834;29;20640;-88
2021/12/21 13:45:12;;;;;;;7.47;4.13;;;;;;;;;;4897560;29;20553;-88
2021/12/21 13:48:17;;;;;;;6.57;4.50;;;;;;;;;;4898047;29;20624;-88
2021/12/21 13:51:23;;;;;;;7.33;4.70;;;;;;;;;;4897418;29;20624;-87
2021/12/21 13:54:28;;;;;;;9.50;4.60;;;;;;;;;;4887064;29;20601;-88
2021/12/21 13:57:33;;;;;;;9.23;4.13;;;;;;;;;;4887000;29;21192;-87
2021/12/21 14:00:44;;;;;;;7.23;4.10;;;;;;;;;;4887061;29;20592;-87
2021/12/21 14:04:03;;;;;;;9.03;5.13;;;;;;;;;;4897353;29;20546;-88
2021/12/21 14:07:07;;;;;;;7.07;4.17;;;;;;;;;;4897390;29;20593;-88
2021/12/21 14:10:21;;;;;;;6.77;4.63;;;;;;;;;;4897190;29;20546;-87
2021/12/21 14:13:29;;;;;;;7.50;4.87;;;;;;;;;;4897679;29;20597;-88
2021/12/21 14:16:39;;;;;;;7.87;5.20;;;;;;;;;;4886643;29;20554;-88
2021/12/21 14:19:54;;;;;;;13.27;6.33;;;;;;;;;;4886379;29;20549;-88
2021/12/21 14:22:58;;;;;;;7.77;4.63;;;;;;;;;;4886416;29;20624;-88
2021/12/21 14:26:10;;;;;;;8.53;3.97;;;;;;;;;;4897478;29;21087;-88
2021/12/21 14:29:16;;;;;;;7.83;4.80;;;;;;;;;;4890330;29;20620;-88
2021/12/21 14:32:36;;;;;;;9.80;5.17;;;;;;;;;;4904486;29;20655;-87
2021/12/21 14:35:40;;;;;;;10.43;4.73;;;;;;;;;;4915822;29;21173;-87
2021/12/21 14:39:03;;;;;;;10.43;4.97;;;;;;;;;;4915405;29;21141;-88
2021/12/21 14:42:20;;;;;;;9.27;6.10;;;;;;;;;;4904209;29;20643;-89
2021/12/21 14:45:26;;;;;;;13.03;7.10;;;;;;;;;;4915190;29;20557;-89
2021/12/21 14:48:30;;;;;;;7.87;4.67;;;;;;;;;;4915388;29;20600;-88
2021/12/21 14:51:49;;;;;;;13.57;6.87;;;;;;;;;;4919200;29;20994;-87
2021/12/21 14:55:21;;;;;;;23.57;9.77;;;;;;;;;;4904092;29;20644;-87
2021/12/21 14:58:24;;;;;;;10.40;5.40;;;;;;;;;;4915315;29;21199;-88
2021/12/21 15:01:55;;;;;;;7.03;4.37;;;;;;;;;;4915339;29;20655;-88
2021/12/21 15:05:02;;;;;;;9.10;4.10;;;;;;;;;;4905790;29;20556;-88
2021/12/21 15:08:09;;;;;;;5.43;4.00;;;;;;;;;;4925588;29;20595;-89
2021/12/21 15:11:13;;;;;;;6.77;4.20;;;;;;;;;;4925408;29;20632;-88
2021/12/21 15:14:17;;;;;;;7.13;4.53;;;;;;;;;;4914938;29;20600;-87
2021/12/21 15:17:21;;;;;;;8.60;5.07;;;;;;;;;;4903837;29;20608;-89
2021/12/21 15:20:27;;;;;;;8.70;5.53;;;;;;;;;;4904160;29;20899;-88
2021/12/21 15:23:32;;;;;;;9.23;5.23;;;;;;;;;;4912631;29;20604;-90
2021/12/21 15:26:36;;;;;;;10.77;6.57;;;;;;;;;;4905012;29;20581;-90
2021/12/21 15:29:41;;;;;;;20.00;11.43;;;;;;;;;;4900177;29;20632;-89
2021/12/21 15:32:47;;;;;;;16.27;9.13;;;;;;;;;;4922747;29;20634;-88
2021/12/21 15:35:51;;;;;;;16.57;7.67;;;;;;;;;;4900303;29;20612;-88
2021/12/21 15:38:56;;;;;;;20.57;12.70;;;;;;;;;;4916149;29;20592;-89
2021/12/21 15:42:12;;;;;;;19.83;10.47;;;;;;;;;;4905281;29;20655;-88
2021/12/21 15:45:17;;;;;;;15.17;10.50;;;;;;;;;;4903506;29;20603;-88
2021/12/21 15:48:21;;;;;;;16.53;10.10;;;;;;;;;;4907188;29;20600;-87
2021/12/21 15:51:26;;;;;;;11.00;6.83;;;;;;;;;;4884090;29;21240;-89
2021/12/21 15:54:31;;;;;;;10.77;6.03;;;;;;;;;;4909985;29;20638;-88
2021/12/21 15:57:36;;;;;;;13.37;7.80;;;;;;;;;;4903587;29;20622;-88
2021/12/21 16:00:40;;;;;;;10.77;7.03;;;;;;;;;;4916357;29;20612;-88
2021/12/21 16:03:45;;;;;;;10.77;7.27;;;;;;;;;;4884977;29;20565;-88
2021/12/21 16:06:50;;;;;;;14.83;8.97;;;;;;;;;;4884917;29;20568;-88
2021/12/21 16:09:55;;;;;;;19.53;12.03;;;;;;;;;;4884900;29;20570;-87
2021/12/21 16:12:59;;;;;;;20.60;12.07;;;;;;;;;;4894752;29;20651;-88
2021/12/21 16:16:04;;;;;;;19.30;12.77;;;;;;;;;;4905888;29;20623;-89
2021/12/21 16:19:10;;;;;;;16.60;9.10;;;;;;;;;;4906197;29;20608;-89
2021/12/21 16:22:14;;;;;;;14.20;8.93;;;;;;;;;;4906446;29;20641;-87
2021/12/21 16:25:18;;;;;;;15.63;9.70;;;;;;;;;;4912583;29;20603;-88
2021/12/21 16:28:23;;;;;;;13.23;7.10;;;;;;;;;;4911839;29;20634;-88
2021/12/21 16:31:27;;;;;;;13.80;7.00;;;;;;;;;;4916177;29;20682;-88
2021/12/21 16:34:32;;;;;;;11.00;6.83;;;;;;;;;;4920478;29;20647;-88
2021/12/21 16:37:38;;;;;;;13.30;6.30;;;;;;;;;;4904150;29;20965;-88
2021/12/21 16:40:44;;;;;;;11.20;6.73;;;;;;;;;;4894089;29;20624;-87
2021/12/21 16:43:49;;;;;;;17.37;7.93;;;;;;;;;;4914016;29;20572;-87
2021/12/21 16:46:55;;;;;;;14.60;8.03;;;;;;;;;;4937839;28;20649;-89
2021/12/21 16:50:00;;;;;;;18.97;8.93;;;;;;;;;;4935247;28;20682;-90
2021/12/21 16:53:04;;;;;;;15.30;8.33;;;;;;;;;;4945367;28;20631;-87
2021/12/21 16:56:08;;;;;;;14.37;8.53;;;;;;;;;;4900250;29;20865;-87
2021/12/21 16:59:13;;;;;;;13.33;8.47;;;;;;;;;;4900880;29;20898;-87
2021/12/21 17:02:17;;;;;;;15.60;8.57;;;;;;;;;;4900814;29;20638;-87
2021/12/21 17:05:21;;;;;;;18.40;9.00;;;;;;;;;;4910389;29;20610;-87
2021/12/21 17:08:29;;;;;;;12.83;8.70;;;;;;;;;;4899555;29;20611;-87
2021/12/21 17:11:33;;;;;;;15.53;8.47;;;;;;;;;;4898877;29;21309;-88
2021/12/21 17:14:37;;;;;;;21.50;10.90;;;;;;;;;;4899261;29;20631;-88
2021/12/21 17:17:41;;;;;;;32.10;16.87;;;;;;;;;;4920590;29;20614;-88
2021/12/21 17:20:46;;;;;;;19.77;8.83;;;;;;;;;;4920724;29;21163;-88
2021/12/21 17:23:50;;;;;;;15.10;9.20;;;;;;;;;;4898949;29;20982;-88
2021/12/21 17:26:54;;;;;;;11.93;8.27;;;;;;;;;;4910188;29;20599;-88
2021/12/21 17:29:58;;;;;;;18.43;8.03;;;;;;;;;;4921370;29;20581;-87
2021/12/21 17:33:03;;;;;;;11.67;7.27;;;;;;;;;;4920427;29;20658;-88
2021/12/21 17:36:17;;;;;;;11.67;7.47;;;;;;;;;;4912438;29;20637;-88
2021/12/21 17:39:21;;;;;;;13.70;7.90;;;;;;;;;;4913258;29;20973;-87
2021/12/21 17:42:25;;;;;;;11.17;7.43;;;;;;;;;;4903097;29;20678;-87
2021/12/21 17:46:21;;;;;;;12.47;7.20;;;;;;;;;;4906358;29;20589;-88
2021/12/21 17:49:27;;;;;;;12.27;7.20;;;;;;;;;;4918898;29;21117;-88
2021/12/21 17:52:31;;;;;;;9.17;6.23;;;;;;;;;;4914272;29;20658;-87
2021/12/21 17:55:37;;;;;;;11.07;6.47;;;;;;;;;;4915973;29;20612;-87
2021/12/21 17:58:42;;;;;;;9.90;6.13;;;;;;;;;;4914649;29;20626;-87
2021/12/21 18:01:46;;;;;;;9.33;6.83;;;;;;;;;;4901965;29;20663;-88
2021/12/21 18:04:51;;;;;;;13.43;7.03;;;;;;;;;;4902360;29;21161;-87
2021/12/21 18:07:55;;;;;;;12.30;6.57;;;;;;;;;;4908098;29;20977;-88
2021/12/21 18:11:00;;;;;;;11.10;6.83;;;;;;;;;;4901744;29;20571;-87
2021/12/21 18:14:06;;;;;;;13.57;6.73;;;;;;;;;;4883037;29;20572;-88
2021/12/21 18:17:10;;;;;;;11.23;7.00;;;;;;;;;;4901314;29;20588;-87
2021/12/21 18:20:14;;;;;;;15.17;7.10;;;;;;;;;;4893543;29;20942;-88
2021/12/21 18:23:19;;;;;;;11.73;6.87;;;;;;;;;;4883753;29;21249;-87
2021/12/21 18:26:26;;;;;;;11.47;6.80;;;;;;;;;;4895355;29;20611;-89
2021/12/21 18:29:31;;;;;;;9.10;6.40;;;;;;;;;;4902181;29;20603;-89
2021/12/21 18:32:35;;;;;;;10.37;6.47;;;;;;;;;;4912386;29;20659;-88
2021/12/21 18:35:39;;;;;;;12.90;6.47;;;;;;;;;;4922533;29;20650;-87
2021/12/21 18:38:46;;;;;;;11.87;7.20;;;;;;;;;;4893902;29;20962;-88
2021/12/21 18:41:51;;;;;;;10.60;6.70;;;;;;;;;;4893908;29;20645;-88
2021/12/21 18:44:55;;;;;;;11.10;6.07;;;;;;;;;;4899348;29;20606;-88
2021/12/21 18:48:00;;;;;;;9.13;6.70;;;;;;;;;;4892126;29;20640;-88
2021/12/21 18:51:04;;;;;;;10.60;6.57;;;;;;;;;;4882449;29;20569;-88
2021/12/21 18:54:08;;;;;;;11.17;6.23;;;;;;;;;;4897870;29;20973;-88
2021/12/21 18:57:12;;;;;;;9.83;6.47;;;;;;;;;;4922357;29;20651;-88
2021/12/21 19:00:18;;;;;;;10.33;6.67;;;;;;;;;;4894499;29;20612;-87
2021/12/21 19:03:25;;;;;;;12.53;5.93;;;;;;;;;;4900571;29;20591;-87
2021/12/21 19:06:30;;;;;;;11.73;7.03;;;;;;;;;;4896742;29;20615;-87
2021/12/21 19:09:34;;;;;;;10.83;6.87;;;;;;;;;;4900254;29;20607;-87
2021/12/21 19:12:38;;;;;;;11.87;6.47;;;;;;;;;;4900273;29;20670;-88
2021/12/21 19:15:42;;;;;;;9.57;6.63;;;;;;;;;;4900059;29;20766;-88
2021/12/21 19:18:46;;;;;;;10.50;6.87;;;;;;;;;;4901361;29;20592;-87
2021/12/21 19:21:51;;;;;;;11.40;6.83;;;;;;;;;;4918887;29;21001;-86
2021/12/21 19:24:56;;;;;;;10.40;6.17;;;;;;;;;;4899910;29;21189;-87